createdAt,value
2022-08-29T00:03:47.395Z,27.23
2022-08-29T00:08:49.441Z,27.14
2022-08-29T00:13:51.667Z,27.05
2022-08-29T00:18:53.550Z,27.06
2022-08-29T00:23:55.633Z,27.04
2022-08-29T00:28:57.687Z,26.92
2022-08-29T00:33:59.901Z,26.74
2022-08-29T00:39:02.582Z,26.91
2022-08-29T00:44:04.781Z,26.70
2022-08-29T00:49:19.085Z,26.72
2022-08-29T00:54:22.746Z,26.76
2022-08-29T00:59:29.426Z,26.44
2022-08-29T01:04:32.749Z,26.68
2022-08-29T01:09:37.197Z,26.48
2022-08-29T01:14:41.907Z,26.62
2022-08-29T01:19:52.635Z,26.62
2022-08-29T01:24:54.997Z,26.61
2022-08-29T01:29:57.766Z,26.57
2022-08-29T01:34:59.829Z,26.53
2022-08-29T01:40:02.031Z,26.41
2022-08-29T01:45:09.761Z,26.31
2022-08-29T01:50:14.846Z,26.24
2022-08-29T01:55:16.843Z,26.26
2022-08-29T02:00:18.933Z,26.36
2022-08-29T02:05:23.162Z,26.39
2022-08-29T02:10:25.477Z,26.39
2022-08-29T02:15:27.537Z,26.36
2022-08-29T02:20:29.683Z,26.18
2022-08-29T02:25:44.267Z,26.18
2022-08-29T02:30:50.103Z,26.13
2022-08-29T02:35:58.419Z,26.21
2022-08-29T02:41:00.541Z,26.07
2022-08-29T02:46:03.141Z,26.02
2022-08-29T02:51:06.034Z,25.74
2022-08-29T02:56:07.916Z,25.82
2022-08-29T03:01:17.370Z,25.60
2022-08-29T03:06:20.349Z,25.63
2022-08-29T03:11:22.438Z,25.63
2022-08-29T03:16:24.536Z,25.43
2022-08-29T03:21:27.973Z,25.58
2022-08-29T03:26:30.073Z,25.48
2022-08-29T03:31:32.590Z,25.46
2022-08-29T03:36:34.854Z,25.45
2022-08-29T03:41:37.011Z,25.43
2022-08-29T03:46:39.725Z,25.43
2022-08-29T03:51:42.379Z,25.35
2022-08-29T03:56:44.401Z,25.26
2022-08-29T04:01:48.508Z,25.07
2022-08-29T04:06:50.647Z,25.38
2022-08-29T04:11:52.670Z,25.38
2022-08-29T04:16:55.028Z,25.37
2022-08-29T04:21:57.420Z,25.15
2022-08-29T04:26:59.878Z,25.18
2022-08-29T04:32:01.968Z,25.07
2022-08-29T04:37:03.991Z,25.07
2022-08-29T04:42:06.097Z,25.06
2022-08-29T04:47:08.017Z,25.02
2022-08-29T04:52:10.876Z,25.03
2022-08-29T04:57:13.113Z,24.99
2022-08-29T05:02:15.047Z,25.00
2022-08-29T05:07:17.113Z,25.00
2022-08-29T05:12:19.862Z,24.92
2022-08-29T05:17:22.958Z,24.73
2022-08-29T05:22:25.267Z,24.64
2022-08-29T05:27:27.252Z,24.69
2022-08-29T05:32:29.311Z,24.63
2022-08-29T05:37:31.275Z,24.63
2022-08-29T05:42:33.249Z,24.52
2022-08-29T05:47:35.186Z,24.54
2022-08-29T05:52:37.292Z,24.60
2022-08-29T05:57:39.510Z,24.66
2022-08-29T06:02:41.679Z,24.60
2022-08-29T06:07:43.697Z,24.61
2022-08-29T06:12:45.650Z,24.45
2022-08-29T06:17:47.655Z,24.47
2022-08-29T06:22:49.590Z,23.43
2022-08-29T06:27:54.353Z,22.53
2022-08-29T06:32:56.405Z,22.03
2022-08-29T06:37:58.287Z,22.07
2022-08-29T06:43:00.262Z,21.86
2022-08-29T06:48:02.258Z,21.87
2022-08-29T06:53:20.818Z,21.94
2022-08-29T06:58:26.778Z,21.78
2022-08-29T07:03:28.901Z,21.99
2022-08-29T07:08:31.890Z,22.14
2022-08-29T07:13:35.312Z,21.97
2022-08-29T07:18:37.847Z,22.20
2022-08-29T07:23:41.026Z,22.34
2022-08-29T07:28:47.132Z,22.39
2022-08-29T07:33:57.075Z,22.41
2022-08-29T07:39:08.207Z,22.19
2022-08-29T07:44:10.807Z,22.49
2022-08-29T07:49:13.010Z,22.59
2022-08-29T07:54:17.030Z,22.77
2022-08-29T07:59:21.082Z,22.79
2022-08-29T08:04:23.172Z,23.07
2022-08-29T08:09:26.294Z,23.01
2022-08-29T08:14:34.574Z,23.38
2022-08-29T08:19:37.998Z,23.62
2022-08-29T08:24:40.084Z,23.86
2022-08-29T08:29:43.987Z,24.16
2022-08-29T08:34:46.293Z,24.49
2022-08-29T08:39:48.216Z,24.92
2022-08-29T08:44:53.864Z,25.15
2022-08-29T08:50:04.563Z,26.01
2022-08-29T08:55:23.076Z,26.69
2022-08-29T09:00:25.182Z,27.41
2022-08-29T09:05:52.151Z,27.07
2022-08-29T09:11:20.473Z,27.36
2022-08-29T09:16:29.538Z,27.66
2022-08-29T09:21:42.672Z,27.75
2022-08-29T09:26:44.734Z,28.09
2022-08-29T09:31:47.312Z,28.62
2022-08-29T09:36:53.708Z,29.44
2022-08-29T09:42:21.906Z,30.02
2022-08-29T09:47:27.362Z,29.87
2022-08-29T09:52:29.947Z,29.83
2022-08-29T09:57:40.035Z,29.46
2022-08-29T10:02:45.251Z,30.06
2022-08-29T10:07:51.779Z,29.77
2022-08-29T10:13:02.714Z,30.04
2022-08-29T10:18:24.631Z,30.65
2022-08-29T10:23:37.364Z,31.44
2022-08-29T10:28:51.590Z,31.74
2022-08-29T10:34:27.289Z,31.70
2022-08-29T10:39:52.515Z,32.53
2022-08-29T10:45:10.153Z,33.32
2022-08-29T10:50:43.092Z,33.78
2022-08-29T10:55:56.255Z,33.99
2022-08-29T11:01:17.626Z,34.10
2022-08-29T11:06:27.094Z,34.35
2022-08-29T11:11:49.287Z,34.11
2022-08-29T11:16:51.066Z,34.40
2022-08-29T11:22:17.332Z,34.80
2022-08-29T11:27:54.679Z,34.78
2022-08-29T11:32:59.299Z,35.29
2022-08-29T11:38:39.025Z,34.87
2022-08-29T11:43:45.080Z,34.27
2022-08-29T11:48:48.489Z,33.95
2022-08-29T11:53:50.441Z,33.94
2022-08-29T11:58:55.479Z,33.89
2022-08-29T12:03:57.975Z,33.61
2022-08-29T12:09:13.807Z,33.33
2022-08-29T12:14:37.952Z,33.45
2022-08-29T12:19:54.412Z,33.34
2022-08-29T12:24:57.834Z,33.17
2022-08-29T12:29:59.985Z,33.39
2022-08-29T12:35:16.853Z,33.14
2022-08-29T12:40:44.573Z,32.88
2022-08-29T12:45:46.792Z,32.60
2022-08-29T12:50:50.471Z,32.73
2022-08-29T12:55:59.707Z,32.69
2022-08-29T13:01:02.631Z,32.79
2022-08-29T13:06:08.567Z,32.84
2022-08-29T13:11:12.917Z,32.63
2022-08-29T13:16:29.802Z,32.55
2022-08-29T13:21:33.150Z,32.49
2022-08-29T13:26:37.354Z,32.38
2022-08-29T13:31:40.250Z,32.38
2022-08-29T13:37:02.340Z,32.25
2022-08-29T13:42:19.873Z,32.30
2022-08-29T13:47:28.785Z,32.41
2022-08-29T13:52:31.756Z,32.36
2022-08-29T13:57:34.931Z,32.30
2022-08-29T14:02:44.724Z,32.34
2022-08-29T14:07:47.168Z,32.45
2022-08-29T14:12:49.319Z,32.51
2022-08-29T14:17:51.247Z,32.44
2022-08-29T14:22:53.199Z,32.51
2022-08-29T14:27:55.507Z,32.48
2022-08-29T14:32:57.526Z,32.56
2022-08-29T14:38:01.489Z,32.36
2022-08-29T14:43:03.926Z,32.75
2022-08-29T14:48:06.686Z,32.68
2022-08-29T14:53:08.765Z,32.56
2022-08-29T14:58:10.608Z,32.82
2022-08-29T15:03:12.535Z,32.65
2022-08-29T15:08:15.916Z,32.77
2022-08-29T15:13:17.967Z,32.47
2022-08-29T15:19:00.656Z,32.38
2022-08-29T15:23:43.271Z,32.41
2022-08-29T15:28:45.466Z,32.27
2022-08-29T15:33:47.326Z,32.44
2022-08-29T15:38:49.232Z,32.61
2022-08-29T15:43:51.134Z,32.71
2022-08-29T15:48:53.318Z,32.29
2022-08-29T15:53:55.248Z,32.46
2022-08-29T15:58:57.070Z,32.47
2022-08-29T16:03:58.927Z,32.49
2022-08-29T16:09:01.347Z,32.48
2022-08-29T16:14:41.151Z,32.49
2022-08-29T16:19:26.331Z,32.32
2022-08-29T16:24:30.528Z,32.34
2022-08-29T16:29:34.209Z,32.20
2022-08-29T16:34:36.334Z,32.36
2022-08-29T16:39:38.165Z,32.43
2022-08-29T16:44:40.966Z,32.24
2022-08-29T16:49:43.030Z,32.03
2022-08-29T16:54:45.180Z,32.02
2022-08-29T16:59:47.083Z,32.04
2022-08-29T17:04:49.796Z,31.88
2022-08-29T17:09:51.582Z,31.90
2022-08-29T17:14:55.083Z,31.67
2022-08-29T17:19:57.065Z,31.57
2022-08-29T17:24:59.454Z,31.49
2022-08-29T17:30:03.621Z,31.31
2022-08-29T17:35:06.927Z,31.29
2022-08-29T17:40:10.309Z,31.28
2022-08-29T17:45:12.798Z,31.11
2022-08-29T17:50:14.728Z,30.90
2022-08-29T17:55:16.530Z,31.05
2022-08-29T18:00:19.436Z,30.86
2022-08-29T18:05:21.351Z,30.71
2022-08-29T18:10:23.502Z,30.81
2022-08-29T18:15:25.814Z,30.71
2022-08-29T18:20:28.303Z,30.48
2022-08-29T18:25:30.580Z,30.51
2022-08-29T18:30:32.589Z,30.35
2022-08-29T18:35:34.817Z,30.35
2022-08-29T18:40:39.701Z,30.23
2022-08-29T18:45:44.149Z,30.12
2022-08-29T18:50:46.495Z,30.07
2022-08-29T18:55:50.954Z,29.86
2022-08-29T19:00:54.660Z,29.71
2022-08-29T19:05:56.739Z,29.58
2022-08-29T19:11:00.158Z,29.43
2022-08-29T19:16:04.076Z,29.37
2022-08-29T19:21:06.729Z,29.32
2022-08-29T19:26:17.349Z,29.18
2022-08-29T19:31:19.419Z,29.06
2022-08-29T19:36:21.598Z,28.92
2022-08-29T19:41:25.157Z,28.74
2022-08-29T19:46:27.491Z,28.62
2022-08-29T19:51:32.782Z,28.30
2022-08-29T19:56:34.898Z,28.36
2022-08-29T20:01:38.217Z,28.35
2022-08-29T20:06:40.345Z,28.37
2022-08-29T20:11:44.037Z,28.41
2022-08-29T20:16:46.072Z,28.35
2022-08-29T20:21:49.051Z,28.33
2022-08-29T20:26:51.106Z,28.28
2022-08-29T20:31:55.428Z,28.28
2022-08-29T20:37:09.532Z,28.14
2022-08-29T20:42:11.411Z,28.10
2022-08-29T20:47:15.848Z,28.07
2022-08-29T20:52:19.968Z,27.92
2022-08-29T20:57:22.458Z,27.80
2022-08-29T21:02:24.332Z,27.63
2022-08-29T21:07:26.734Z,27.73
2022-08-29T21:12:28.846Z,27.73
2022-08-29T21:17:30.800Z,27.65
2022-08-29T21:22:32.729Z,27.66
2022-08-29T21:27:34.606Z,27.63
2022-08-29T21:32:36.403Z,27.42
2022-08-29T21:37:39.219Z,27.50
2022-08-29T21:42:42.313Z,27.32
2022-08-29T21:47:49.092Z,27.16
2022-08-29T21:52:51.273Z,27.06
2022-08-29T21:57:53.162Z,26.87
2022-08-29T22:02:55.572Z,26.75
2022-08-29T22:07:57.592Z,26.51
2022-08-29T22:13:01.131Z,26.78
2022-08-29T22:18:03.563Z,26.67
2022-08-29T22:23:05.788Z,26.26
2022-08-29T22:28:10.238Z,26.29
2022-08-29T22:33:16.428Z,26.19
2022-08-29T22:38:18.710Z,25.82
2022-08-29T22:43:21.412Z,26.08
2022-08-29T22:48:23.333Z,26.03
2022-08-29T22:53:25.346Z,25.92
2022-08-29T22:58:27.272Z,25.82
2022-08-29T23:03:29.202Z,25.73
2022-08-29T23:08:31.264Z,25.69
2022-08-29T23:13:33.793Z,25.80
2022-08-29T23:18:35.658Z,25.77
2022-08-29T23:23:37.582Z,25.56
2022-08-29T23:28:39.478Z,25.26
2022-08-29T23:33:41.424Z,25.48
2022-08-29T23:38:43.716Z,25.60
2022-08-29T23:43:45.599Z,25.61
2022-08-29T23:48:47.440Z,25.38
2022-08-29T23:53:49.431Z,25.28
2022-08-29T23:58:54.765Z,25.40
